Ladbroke Grove, United Kingdom
Current Conditions -  °F | °C
As of 5:50 AM on Saturday 25 Oct 2014 (Local Time) from EGWU Reporting Station
Scattered Clouds Scattered Clouds  
Wind Chill: 43°   Ceiling: Unl
Heat Index: 43°   Visibility: 6mi
Dew Point: 43°   Wind: 1mph
Humidity: 100%   Direction: 260°W
Pressure: 30"   Gusts: NA
Location:  51.53°N, 0.22°W
Report Text: EGWU 250450Z AUTO 26001KT 9999 // SCT043/// 06/06 Q1016
Loading
Personal Weather Stations






























Interactive Weather Map
Tropical Storm Tracking
New forecast layout! Learn more

10-Day Weather Forecast

Advertisements
Track Severe Weather on mobile